createdAt,value
2022-10-31T00:00:49.047Z,11.50
2022-10-31T00:03:16.681Z,11.50
2022-10-31T00:05:50.942Z,11.60
2022-10-31T00:08:18.472Z,11.60
2022-10-31T00:10:46.489Z,11.60
2022-10-31T00:13:14.628Z,11.60
2022-10-31T00:15:41.709Z,11.60
2022-10-31T00:18:10.253Z,11.50
2022-10-31T00:20:37.719Z,11.60
2022-10-31T00:23:05.404Z,11.70
2022-10-31T00:25:36.768Z,11.60
2022-10-31T00:28:04.927Z,11.70
2022-10-31T00:30:31.855Z,11.70
2022-10-31T00:32:58.852Z,11.70
2022-10-31T00:35:25.861Z,11.60
2022-10-31T00:37:53.593Z,11.50
2022-10-31T00:40:20.263Z,11.50
2022-10-31T00:42:46.942Z,11.60
2022-10-31T00:45:13.891Z,11.60
2022-10-31T00:47:40.530Z,11.60
2022-10-31T00:50:07.905Z,11.60
2022-10-31T00:52:34.998Z,11.60
2022-10-31T00:55:02.564Z,11.60
2022-10-31T00:57:29.232Z,11.60
2022-10-31T00:59:55.985Z,11.60
2022-10-31T01:02:22.848Z,11.60
2022-10-31T01:04:49.613Z,11.60
2022-10-31T01:07:16.392Z,11.50
2022-10-31T01:09:45.049Z,11.60
2022-10-31T01:12:11.763Z,11.50
2022-10-31T01:14:44.539Z,11.50
2022-10-31T01:17:11.978Z,11.40
2022-10-31T01:19:38.937Z,11.40
2022-10-31T01:22:05.866Z,11.40
2022-10-31T01:24:32.946Z,11.30
2022-10-31T01:27:02.616Z,11.30
2022-10-31T01:29:32.709Z,11.30
2022-10-31T01:31:59.904Z,11.30
2022-10-31T01:34:26.866Z,11.30
2022-10-31T01:36:53.515Z,11.30
2022-10-31T01:39:20.384Z,11.30
2022-10-31T01:41:54.780Z,11.20
2022-10-31T01:44:21.410Z,11.10
2022-10-31T01:46:58.757Z,11.00
2022-10-31T01:49:41.133Z,11.00
2022-10-31T01:52:13.821Z,10.90
2022-10-31T01:54:43.201Z,10.90
2022-10-31T01:57:13.610Z,10.80
2022-10-31T01:59:45.958Z,10.80
2022-10-31T02:02:13.952Z,10.80
2022-10-31T02:04:41.978Z,10.70
2022-10-31T02:07:14.981Z,10.80
2022-10-31T02:09:44.058Z,10.60
2022-10-31T02:12:12.921Z,10.50
2022-10-31T02:14:41.213Z,10.50
2022-10-31T02:17:07.939Z,10.50
2022-10-31T02:20:10.504Z,10.40
2022-10-31T02:23:00.401Z,10.50
2022-10-31T02:25:55.364Z,10.40
2022-10-31T02:28:41.613Z,10.30
2022-10-31T02:31:23.968Z,10.30
2022-10-31T02:33:59.613Z,10.10
2022-10-31T02:36:33.642Z,10.20
2022-10-31T02:39:16.991Z,10.20
2022-10-31T02:42:02.959Z,10.20
2022-10-31T02:44:46.318Z,10.20
2022-10-31T02:47:17.430Z,10.20
2022-10-31T02:50:03.477Z,10.10
2022-10-31T02:52:32.803Z,10.10
2022-10-31T02:55:25.947Z,10.10
2022-10-31T02:58:10.970Z,10.00
2022-10-31T03:00:45.823Z,9.90
2022-10-31T03:03:27.158Z,9.90
2022-10-31T03:06:01.979Z,9.90
2022-10-31T03:08:42.519Z,9.90
2022-10-31T03:11:10.510Z,9.90
2022-10-31T03:14:01.201Z,9.80
2022-10-31T03:16:48.370Z,9.80
2022-10-31T03:19:30.146Z,9.80
2022-10-31T03:22:08.193Z,9.80
2022-10-31T03:24:39.438Z,9.70
2022-10-31T03:27:10.274Z,9.70
2022-10-31T03:29:38.951Z,9.70
2022-10-31T03:32:11.260Z,9.70
2022-10-31T03:34:40.899Z,9.70
2022-10-31T03:37:10.712Z,9.60
2022-10-31T03:39:41.894Z,9.50
2022-10-31T03:42:16.548Z,9.50
2022-10-31T03:44:49.663Z,9.50
2022-10-31T03:47:17.016Z,9.50
2022-10-31T03:49:44.161Z,9.60
2022-10-31T03:52:31.176Z,9.60
2022-10-31T03:55:03.434Z,9.50
2022-10-31T03:57:53.870Z,9.50
2022-10-31T04:00:21.243Z,9.50
2022-10-31T04:03:10.535Z,9.40
2022-10-31T04:05:40.268Z,9.30
2022-10-31T04:08:12.808Z,9.30
2022-10-31T04:10:40.860Z,9.20
2022-10-31T04:13:13.763Z,9.30
2022-10-31T04:15:46.715Z,9.30
2022-10-31T04:18:13.659Z,9.30
2022-10-31T04:20:42.540Z,9.20
2022-10-31T04:23:27.153Z,9.20
2022-10-31T04:25:54.705Z,9.20
2022-10-31T04:28:22.175Z,9.20
2022-10-31T04:30:49.250Z,9.10
2022-10-31T04:33:17.406Z,9.10
2022-10-31T04:35:46.588Z,9.00
2022-10-31T04:38:13.445Z,9.00
2022-10-31T04:40:41.145Z,8.90
2022-10-31T04:43:30.931Z,8.80
2022-10-31T04:46:00.234Z,8.80
2022-10-31T04:48:27.107Z,8.90
2022-10-31T04:50:53.985Z,8.90
2022-10-31T04:53:21.096Z,8.90
2022-10-31T04:56:10.690Z,8.90
2022-10-31T04:58:42.030Z,8.80
2022-10-31T05:01:10.379Z,8.80
2022-10-31T05:03:37.353Z,8.80
2022-10-31T05:06:04.206Z,8.90
2022-10-31T05:08:31.077Z,8.80
2022-10-31T05:11:04.388Z,8.80
2022-10-31T05:13:32.145Z,8.70
2022-10-31T05:16:10.649Z,8.70
2022-10-31T05:19:00.073Z,8.60
2022-10-31T05:21:46.749Z,8.60
2022-10-31T05:24:13.474Z,8.50
2022-10-31T05:26:44.861Z,8.50
2022-10-31T05:29:13.061Z,8.50
2022-10-31T05:31:40.067Z,8.40
2022-10-31T05:34:11.986Z,8.40
2022-10-31T05:36:57.588Z,8.30
2022-10-31T05:39:25.298Z,8.20
2022-10-31T05:41:56.232Z,8.20
2022-10-31T05:44:26.747Z,8.20
2022-10-31T05:47:13.682Z,8.20
2022-10-31T05:49:55.614Z,8.20
2022-10-31T05:52:40.771Z,8.20
2022-10-31T05:55:17.537Z,8.10
2022-10-31T05:57:59.420Z,8.10
2022-10-31T06:00:27.915Z,8.20
2022-10-31T06:03:05.514Z,8.10
2022-10-31T06:05:43.110Z,8.10
2022-10-31T06:08:09.791Z,8.20
2022-10-31T06:10:38.890Z,8.30
2022-10-31T06:13:07.422Z,8.30
2022-10-31T06:15:38.608Z,8.20
2022-10-31T06:18:07.798Z,8.20
2022-10-31T06:20:39.401Z,8.20
2022-10-31T06:23:07.284Z,8.20
2022-10-31T06:25:35.038Z,8.30
2022-10-31T06:28:04.307Z,8.30
2022-10-31T06:30:49.761Z,8.30
2022-10-31T06:33:17.256Z,8.30
2022-10-31T06:35:54.437Z,8.30
2022-10-31T06:38:21.798Z,8.20
2022-10-31T06:40:48.466Z,8.30
2022-10-31T06:43:18.654Z,8.10
2022-10-31T06:45:46.381Z,8.20
2022-10-31T06:48:18.917Z,8.20
2022-10-31T06:51:23.896Z,8.20
2022-10-31T06:53:51.476Z,8.20
2022-10-31T06:56:19.012Z,8.10
2022-10-31T06:58:49.820Z,8.20
2022-10-31T07:01:21.187Z,8.20
2022-10-31T07:03:48.748Z,8.20
2022-10-31T07:06:15.492Z,8.20
2022-10-31T07:08:42.606Z,8.20
2022-10-31T07:11:09.325Z,8.30
2022-10-31T07:13:36.254Z,8.20
2022-10-31T07:16:12.910Z,8.30
2022-10-31T07:18:40.851Z,8.40
2022-10-31T07:21:08.971Z,8.50
2022-10-31T07:23:35.734Z,8.60
2022-10-31T07:26:21.191Z,8.60
2022-10-31T07:28:49.111Z,8.60
2022-10-31T07:31:18.959Z,8.60
2022-10-31T07:33:46.128Z,8.70
2022-10-31T07:36:27.684Z,8.80
2022-10-31T07:38:59.904Z,8.90
2022-10-31T07:41:26.778Z,8.80
2022-10-31T07:47:04.226Z,8.90
2022-10-31T07:49:49.744Z,9.00
2022-10-31T07:52:26.367Z,9.00
2022-10-31T07:55:32.229Z,9.00
2022-10-31T07:58:01.197Z,9.10
2022-10-31T08:00:29.785Z,9.10
2022-10-31T08:03:05.735Z,9.10
2022-10-31T08:05:58.455Z,9.10
2022-10-31T08:08:48.097Z,9.20
2022-10-31T08:11:14.838Z,9.30
2022-10-31T08:13:43.635Z,9.40
2022-10-31T08:16:13.248Z,9.40
2022-10-31T08:18:49.861Z,9.50
2022-10-31T08:21:17.284Z,9.60
2022-10-31T08:23:45.351Z,9.70
2022-10-31T08:26:12.468Z,9.80
2022-10-31T08:28:39.200Z,10.00
2022-10-31T08:31:06.736Z,10.20
2022-10-31T08:33:39.397Z,10.40
2022-10-31T08:36:24.686Z,10.50
2022-10-31T08:39:04.087Z,10.70
2022-10-31T08:41:31.311Z,10.80
2022-10-31T08:43:59.608Z,10.80
2022-10-31T08:46:26.284Z,11.00
2022-10-31T08:48:53.702Z,11.00
2022-10-31T08:51:21.027Z,11.10
2022-10-31T08:53:51.396Z,11.20
2022-10-31T08:56:33.310Z,11.40
2022-10-31T08:59:02.166Z,11.60
2022-10-31T09:01:46.061Z,11.70
2022-10-31T09:04:12.828Z,11.70
2022-10-31T09:06:46.384Z,11.80
2022-10-31T09:09:22.461Z,12.00
2022-10-31T09:11:49.223Z,12.20
2022-10-31T09:14:48.103Z,12.50
2022-10-31T09:17:32.056Z,12.90
2022-10-31T09:20:39.143Z,13.30
2022-10-31T09:23:09.915Z,13.50
2022-10-31T09:25:38.827Z,13.60
2022-10-31T09:28:25.512Z,13.60
2022-10-31T09:30:54.737Z,13.60
2022-10-31T09:33:50.179Z,13.70
2022-10-31T09:36:35.981Z,13.70
2022-10-31T09:39:04.563Z,13.70
2022-10-31T09:41:43.928Z,13.80
2022-10-31T09:44:10.620Z,13.90
2022-10-31T09:47:13.701Z,14.00
2022-10-31T09:50:07.801Z,14.20
2022-10-31T09:52:37.629Z,14.30
2022-10-31T09:55:20.745Z,14.50
2022-10-31T09:57:48.684Z,14.70
2022-10-31T10:00:21.833Z,14.80
2022-10-31T10:03:16.808Z,15.20
2022-10-31T10:05:54.403Z,15.40
2022-10-31T10:08:34.215Z,15.80
2022-10-31T10:11:35.533Z,16.00
2022-10-31T10:14:23.914Z,16.20
2022-10-31T10:17:14.743Z,16.10
2022-10-31T10:20:00.229Z,16.00
2022-10-31T10:22:47.088Z,16.00
2022-10-31T10:25:21.489Z,15.80
2022-10-31T10:28:14.149Z,15.90
2022-10-31T10:30:41.052Z,15.80
2022-10-31T10:33:28.850Z,15.80
2022-10-31T10:36:05.759Z,15.80
2022-10-31T10:38:32.385Z,15.70
2022-10-31T10:41:02.893Z,15.80
2022-10-31T10:43:36.644Z,15.70
2022-10-31T10:46:49.903Z,15.80
2022-10-31T10:49:50.099Z,15.90
2022-10-31T10:52:44.744Z,15.90
2022-10-31T10:55:30.869Z,15.90
2022-10-31T10:58:02.519Z,16.00
2022-10-31T11:00:37.147Z,16.10
2022-10-31T11:03:05.867Z,16.20
2022-10-31T11:05:49.919Z,16.20
2022-10-31T11:08:29.748Z,16.10
2022-10-31T11:11:05.385Z,16.00
2022-10-31T11:13:33.618Z,16.00
2022-10-31T11:16:07.198Z,16.10
2022-10-31T11:18:38.644Z,16.10
2022-10-31T11:21:06.315Z,16.20
2022-10-31T11:23:33.967Z,16.20
2022-10-31T11:26:17.602Z,16.40
2022-10-31T11:28:44.996Z,16.30
2022-10-31T11:31:16.644Z,16.40
2022-10-31T11:33:50.561Z,16.30
2022-10-31T11:36:21.236Z,16.30
2022-10-31T11:38:48.258Z,16.20
2022-10-31T11:41:18.532Z,16.40
2022-10-31T11:43:53.940Z,16.40
2022-10-31T11:46:34.089Z,16.50
2022-10-31T11:49:01.288Z,16.40
2022-10-31T11:51:32.063Z,16.40
2022-10-31T11:54:03.271Z,16.40
2022-10-31T11:56:41.780Z,16.40
2022-10-31T11:59:34.896Z,16.40
2022-10-31T12:02:02.944Z,16.40
2022-10-31T12:04:29.669Z,16.40
2022-10-31T12:06:56.457Z,16.40
2022-10-31T12:09:29.200Z,16.30
2022-10-31T12:12:15.078Z,16.20
2022-10-31T12:14:52.750Z,16.20
2022-10-31T12:17:25.528Z,16.20
2022-10-31T12:20:23.321Z,16.20
2022-10-31T12:23:25.238Z,16.20
2022-10-31T12:26:03.221Z,16.20
2022-10-31T12:28:55.889Z,16.40
2022-10-31T12:31:25.679Z,16.60
2022-10-31T12:34:13.881Z,16.70
2022-10-31T12:37:03.782Z,16.90
2022-10-31T12:39:59.905Z,16.90
2022-10-31T12:42:40.458Z,16.90
2022-10-31T12:45:40.724Z,17.00
2022-10-31T12:48:34.718Z,17.10
2022-10-31T12:51:20.399Z,17.20
2022-10-31T12:53:58.206Z,17.10
2022-10-31T12:56:41.004Z,17.20
2022-10-31T12:59:34.881Z,17.10
2022-10-31T13:02:19.492Z,17.10
2022-10-31T13:04:56.268Z,17.20
2022-10-31T13:07:56.851Z,17.20
2022-10-31T13:10:51.204Z,17.20
2022-10-31T13:13:28.369Z,17.20
2022-10-31T13:16:02.173Z,17.20
2022-10-31T13:18:43.815Z,17.20
2022-10-31T13:21:22.951Z,17.10
2022-10-31T13:23:53.047Z,17.10
2022-10-31T13:26:31.511Z,17.10
2022-10-31T13:29:10.302Z,17.10
2022-10-31T13:31:41.349Z,17.10
2022-10-31T13:34:27.620Z,17.20
2022-10-31T13:37:19.310Z,17.30
2022-10-31T13:40:04.598Z,17.40
2022-10-31T13:43:03.880Z,17.50
2022-10-31T13:45:30.861Z,17.50
2022-10-31T13:48:03.928Z,17.60
2022-10-31T13:50:32.945Z,17.60
2022-10-31T13:53:14.992Z,17.60
2022-10-31T13:55:44.421Z,17.60
2022-10-31T13:58:30.484Z,17.60
2022-10-31T14:01:19.748Z,17.50
2022-10-31T14:04:07.705Z,17.50
2022-10-31T14:06:50.125Z,17.50
2022-10-31T14:09:24.314Z,17.40
2022-10-31T14:11:52.081Z,17.40
2022-10-31T14:14:20.943Z,17.30
2022-10-31T14:16:56.119Z,17.30
2022-10-31T14:19:23.433Z,17.20
2022-10-31T14:21:51.238Z,17.20
2022-10-31T14:24:23.939Z,17.20
2022-10-31T14:26:56.279Z,17.00
2022-10-31T14:29:27.206Z,17.10
2022-10-31T14:31:58.437Z,17.00
2022-10-31T14:34:35.586Z,17.00
2022-10-31T14:37:26.809Z,16.90
2022-10-31T14:40:20.816Z,16.90
2022-10-31T14:42:59.708Z,16.90
2022-10-31T14:46:01.633Z,16.90
2022-10-31T14:48:42.972Z,16.90
2022-10-31T14:51:21.520Z,16.80
2022-10-31T14:53:54.580Z,16.80
2022-10-31T14:56:30.366Z,16.70
2022-10-31T14:59:00.993Z,16.80
2022-10-31T15:01:34.296Z,16.70
2022-10-31T15:04:28.532Z,16.70
2022-10-31T15:07:20.322Z,16.70
2022-10-31T15:09:58.485Z,16.80
2022-10-31T15:12:27.128Z,16.70
2022-10-31T15:14:54.437Z,16.70
2022-10-31T15:17:21.999Z,16.60
2022-10-31T15:19:49.146Z,16.60
2022-10-31T15:22:19.717Z,16.60
2022-10-31T15:24:46.721Z,16.50
2022-10-31T15:27:16.153Z,16.50
2022-10-31T15:29:51.670Z,16.50
2022-10-31T15:32:23.345Z,16.50
2022-10-31T15:34:51.982Z,16.40
2022-10-31T15:37:21.226Z,16.40
2022-10-31T15:39:50.006Z,16.40
2022-10-31T15:42:33.434Z,16.30
2022-10-31T15:45:03.319Z,16.30
2022-10-31T15:47:32.955Z,16.30
2022-10-31T15:50:01.604Z,16.30
2022-10-31T15:52:31.801Z,16.20
2022-10-31T15:55:03.965Z,16.20
2022-10-31T15:57:31.960Z,16.10
2022-10-31T15:59:59.186Z,16.10
2022-10-31T16:02:28.278Z,16.10
2022-10-31T16:05:16.216Z,16.10
2022-10-31T16:07:50.599Z,16.10
2022-10-31T16:10:26.332Z,16.10
2022-10-31T16:12:53.306Z,16.00
2022-10-31T16:15:21.990Z,16.00
2022-10-31T16:17:52.397Z,16.00
2022-10-31T16:20:26.213Z,15.90
2022-10-31T16:22:54.673Z,15.90
2022-10-31T16:25:28.197Z,15.80
2022-10-31T16:28:02.777Z,15.70
2022-10-31T16:30:48.432Z,15.60
2022-10-31T16:33:26.717Z,15.50
2022-10-31T16:35:59.714Z,15.40
2022-10-31T16:38:36.541Z,15.20
2022-10-31T16:41:03.253Z,15.10
2022-10-31T16:43:29.956Z,15.10
2022-10-31T16:45:56.698Z,15.00
2022-10-31T16:48:24.181Z,14.90
2022-10-31T16:50:53.628Z,14.80
2022-10-31T16:53:20.786Z,14.80
2022-10-31T16:55:49.170Z,14.80
2022-10-31T16:58:26.261Z,14.70
2022-10-31T17:00:53.571Z,14.70
2022-10-31T17:03:20.757Z,14.70
2022-10-31T17:05:47.504Z,14.60
2022-10-31T17:08:14.470Z,14.70
2022-10-31T17:10:42.975Z,14.80
2022-10-31T17:13:18.678Z,14.70
2022-10-31T17:15:49.025Z,14.70
2022-10-31T17:18:17.126Z,14.70
2022-10-31T17:20:45.074Z,14.80
2022-10-31T17:23:13.380Z,14.70
2022-10-31T17:25:40.757Z,14.60
2022-10-31T17:28:13.840Z,14.60
2022-10-31T17:30:43.964Z,14.60
2022-10-31T17:33:12.685Z,14.50
2022-10-31T17:35:39.354Z,14.40
2022-10-31T17:38:06.035Z,14.40
2022-10-31T17:40:33.380Z,14.30
2022-10-31T17:43:00.300Z,14.30
2022-10-31T17:45:27.372Z,14.40
2022-10-31T17:47:54.325Z,14.20
2022-10-31T17:50:23.431Z,14.30
2022-10-31T17:52:50.621Z,14.20
2022-10-31T17:55:18.124Z,14.20
2022-10-31T17:57:45.068Z,14.10
2022-10-31T18:00:17.098Z,14.00
2022-10-31T18:02:44.043Z,14.00
2022-10-31T18:05:11.148Z,14.00
2022-10-31T18:07:37.820Z,13.90
2022-10-31T18:10:05.577Z,14.00
2022-10-31T18:12:32.447Z,13.90
2022-10-31T18:14:59.145Z,13.90
2022-10-31T18:17:25.946Z,13.90
2022-10-31T18:19:52.612Z,13.80
2022-10-31T18:22:19.278Z,13.90
2022-10-31T18:24:45.969Z,13.90
2022-10-31T18:27:12.708Z,13.90
2022-10-31T18:29:39.401Z,13.80
2022-10-31T18:32:09.518Z,13.80
2022-10-31T18:34:36.921Z,13.90
2022-10-31T18:37:03.865Z,13.80
2022-10-31T18:39:30.701Z,13.70
2022-10-31T18:41:57.632Z,13.80
2022-10-31T18:44:24.546Z,13.80
2022-10-31T18:46:51.182Z,13.80
2022-10-31T18:49:22.421Z,13.90
2022-10-31T18:51:52.419Z,13.90
2022-10-31T18:54:19.209Z,13.90
2022-10-31T18:56:46.008Z,13.90
2022-10-31T18:59:13.165Z,13.90
2022-10-31T19:01:40.097Z,14.00
2022-10-31T19:04:07.135Z,14.00
2022-10-31T19:06:33.884Z,13.90
2022-10-31T19:09:03.817Z,14.00
2022-10-31T19:11:34.251Z,13.90
2022-10-31T19:14:01.289Z,13.90
2022-10-31T19:16:28.199Z,13.90
2022-10-31T19:18:56.705Z,13.90
2022-10-31T19:21:24.225Z,13.90
2022-10-31T19:23:53.680Z,13.80
2022-10-31T19:26:20.581Z,13.80
2022-10-31T19:28:47.592Z,13.70
2022-10-31T19:31:14.302Z,13.70
2022-10-31T19:33:40.975Z,13.80
2022-10-31T19:36:18.070Z,13.70
2022-10-31T19:38:46.627Z,13.70
2022-10-31T19:41:26.019Z,13.70
2022-10-31T19:43:53.424Z,13.70
2022-10-31T19:46:27.983Z,13.70
2022-10-31T19:49:01.167Z,13.90
2022-10-31T19:51:27.977Z,14.00
2022-10-31T19:53:54.697Z,14.20
2022-10-31T19:56:23.714Z,14.40
2022-10-31T19:58:50.807Z,14.40
2022-10-31T20:01:19.953Z,14.40
2022-10-31T20:03:47.576Z,14.30
2022-10-31T20:06:32.267Z,14.40
2022-10-31T20:09:00.933Z,14.50
2022-10-31T20:11:28.713Z,14.60
2022-10-31T20:13:57.025Z,14.50
2022-10-31T20:16:24.386Z,14.50
2022-10-31T20:18:51.504Z,14.50
2022-10-31T20:21:21.601Z,14.50
2022-10-31T20:23:48.338Z,14.50
2022-10-31T20:26:17.439Z,14.50
2022-10-31T20:28:44.444Z,14.50
2022-10-31T20:31:15.524Z,14.40
2022-10-31T20:33:42.264Z,14.50
2022-10-31T20:36:09.129Z,14.50
2022-10-31T20:38:40.696Z,14.50
2022-10-31T20:41:09.654Z,14.50
2022-10-31T20:43:37.486Z,14.50
2022-10-31T20:46:07.756Z,14.50
2022-10-31T20:48:34.888Z,14.50
2022-10-31T20:51:05.217Z,14.50
2022-10-31T20:53:32.981Z,14.60
2022-10-31T20:56:07.063Z,14.60
2022-10-31T20:58:35.854Z,14.70
2022-10-31T21:01:03.106Z,14.60
2022-10-31T21:03:30.088Z,14.60
2022-10-31T21:05:59.232Z,14.60
2022-10-31T21:08:28.033Z,14.60
2022-10-31T21:10:55.106Z,14.60
2022-10-31T21:13:22.092Z,14.60
2022-10-31T21:15:58.540Z,14.60
2022-10-31T21:18:25.235Z,14.60
2022-10-31T21:20:51.980Z,14.60
2022-10-31T21:23:18.874Z,14.60
2022-10-31T21:25:45.785Z,14.60
2022-10-31T21:28:14.841Z,14.60
2022-10-31T21:30:48.300Z,14.60
2022-10-31T21:33:15.469Z,14.50
2022-10-31T21:35:50.725Z,14.50
2022-10-31T21:38:18.204Z,14.50
2022-10-31T21:40:45.188Z,14.40
2022-10-31T21:43:11.925Z,14.40
2022-10-31T21:45:38.567Z,14.40
2022-10-31T21:48:05.473Z,14.40
2022-10-31T21:50:32.181Z,14.40
2022-10-31T21:53:18.844Z,14.40
2022-10-31T21:55:45.508Z,14.40
2022-10-31T21:58:12.166Z,14.40
2022-10-31T22:00:38.878Z,14.40
2022-10-31T22:03:05.506Z,14.50
2022-10-31T22:05:34.666Z,14.60
2022-10-31T22:08:01.672Z,14.60
2022-10-31T22:10:28.659Z,14.60
2022-10-31T22:12:55.328Z,14.60
2022-10-31T22:15:23.543Z,14.60
2022-10-31T22:17:51.017Z,14.60
2022-10-31T22:20:17.768Z,14.60
2022-10-31T22:22:47.210Z,14.70
2022-10-31T22:25:14.027Z,14.60
2022-10-31T22:27:41.718Z,14.60
2022-10-31T22:30:09.166Z,14.60
2022-10-31T22:32:35.972Z,14.50
2022-10-31T22:35:02.778Z,14.50
2022-10-31T22:37:29.509Z,14.60
2022-10-31T22:39:56.340Z,14.70
2022-10-31T22:42:23.071Z,14.60
2022-10-31T22:44:49.820Z,14.60
2022-10-31T22:47:16.476Z,14.60
2022-10-31T22:49:43.814Z,14.70
2022-10-31T22:52:10.542Z,14.70
2022-10-31T22:54:37.203Z,14.70
2022-10-31T22:57:03.928Z,14.70
2022-10-31T22:59:30.573Z,14.70
2022-10-31T23:01:57.415Z,14.80
2022-10-31T23:04:24.310Z,14.80
2022-10-31T23:06:50.993Z,14.70
2022-10-31T23:09:18.453Z,14.70
2022-10-31T23:11:45.562Z,14.80
2022-10-31T23:14:19.392Z,14.80
2022-10-31T23:16:50.541Z,14.70
2022-10-31T23:19:27.319Z,14.70
2022-10-31T23:21:57.660Z,14.60
2022-10-31T23:24:32.306Z,14.60
2022-10-31T23:27:12.005Z,14.60
2022-10-31T23:29:53.696Z,14.50
2022-10-31T23:32:25.216Z,14.50
2022-10-31T23:35:00.221Z,14.50
2022-10-31T23:37:29.681Z,14.50
2022-10-31T23:39:57.244Z,14.50
2022-10-31T23:42:24.901Z,14.50
2022-10-31T23:44:51.968Z,14.50
2022-10-31T23:47:19.589Z,14.50
2022-10-31T23:49:46.636Z,14.40
2022-10-31T23:52:14.572Z,14.50
2022-10-31T23:54:41.810Z,14.40
2022-10-31T23:57:10.160Z,14.40
2022-10-31T23:59:36.880Z,14.40
